Palestine, Texas
Current Conditions -  °F | °C
As of 12:55 AM on Friday 28 Nov 2014 (Local Time) from KPSN Reporting Station
Haze Haze  
Wind Chill: 46°   Ceiling: Unl
Heat Index: 46°   Visibility: 4mi
Dew Point: 33°   Wind: 3mph
Humidity: 61%   Direction: 130°SE
Pressure: 30.39"   Gusts: NA
Location:  31.76°N, 95.63°W
Report Text: KPSN 280655Z AUTO 13003KT 4SM HZ CLR 07/00 A3039 RMK AO2 T00750004
Loading
Personal Weather Stations






























Interactive Weather Map New forecast layout! Learn more

10-Day Weather Forecast

Advertisements
Track Severe Weather on mobile